createdAt,value
2018-12-16T00:00:42.984Z,32.10
2018-12-16T00:01:43.006Z,29.50
2018-12-16T00:02:42.965Z,30.60
2018-12-16T00:03:42.953Z,31.30
2018-12-16T00:04:49.649Z,32.40
2018-12-16T00:05:43.933Z,32.00
2018-12-16T00:06:42.937Z,33.10
2018-12-16T00:07:42.948Z,33.80
2018-12-16T00:08:42.899Z,33.20
2018-12-16T00:09:42.888Z,34.70
2018-12-16T00:10:42.891Z,33.80
2018-12-16T00:11:42.871Z,32.50
2018-12-16T00:12:42.886Z,33.80
2018-12-16T00:13:42.866Z,33.80
2018-12-16T00:14:42.831Z,34.40
2018-12-16T00:15:42.821Z,34.30
2018-12-16T00:16:42.813Z,31.10
2018-12-16T00:17:42.821Z,32.20
2018-12-16T00:18:42.795Z,30.70
2018-12-16T00:19:42.808Z,28.30
2018-12-16T00:20:42.778Z,35.00
2018-12-16T00:21:42.755Z,35.60
2018-12-16T00:22:42.781Z,31.30
2018-12-16T00:23:42.737Z,31.40
2018-12-16T00:24:42.754Z,32.20
2018-12-16T00:25:42.723Z,32.00
2018-12-16T00:26:42.701Z,32.80
2018-12-16T00:27:42.721Z,31.70
2018-12-16T00:28:42.702Z,29.40
2018-12-16T00:29:42.697Z,30.40
2018-12-16T00:30:42.685Z,32.20
2018-12-16T00:31:42.687Z,32.30
2018-12-16T00:32:42.642Z,31.30
2018-12-16T00:33:42.630Z,31.60
2018-12-16T00:34:42.613Z,32.90
2018-12-16T00:35:42.629Z,31.30
2018-12-16T00:36:42.597Z,30.00
2018-12-16T00:37:42.606Z,33.00
2018-12-16T00:38:42.570Z,30.80
2018-12-16T00:39:42.559Z,32.60
2018-12-16T00:40:42.590Z,29.90
2018-12-16T00:41:42.565Z,31.20
2018-12-16T00:42:42.546Z,33.60
2018-12-16T00:43:42.534Z,31.90
2018-12-16T00:44:42.503Z,32.90
2018-12-16T00:45:42.614Z,30.10
2018-12-16T00:46:42.486Z,31.10
2018-12-16T00:47:42.483Z,30.80
2018-12-16T00:48:42.478Z,26.50
2018-12-16T00:49:42.452Z,30.40
2018-12-16T00:50:42.490Z,30.30
2018-12-16T00:51:42.427Z,29.80
2018-12-16T00:52:42.440Z,29.10
2018-12-16T00:53:42.413Z,32.20
2018-12-16T00:54:42.410Z,30.40
2018-12-16T00:55:49.221Z,30.80
2018-12-16T00:56:43.403Z,30.40
2018-12-16T00:57:42.363Z,29.20
2018-12-16T00:58:42.373Z,31.30
2018-12-16T00:59:42.381Z,27.80
2018-12-16T01:00:42.338Z,28.80
2018-12-16T01:01:42.347Z,28.90
2018-12-16T01:02:42.309Z,29.50
2018-12-16T01:03:42.344Z,28.50
2018-12-16T01:04:42.285Z,27.40
2018-12-16T01:05:42.280Z,28.60
2018-12-16T01:06:42.271Z,31.30
2018-12-16T01:07:42.253Z,29.60
2018-12-16T01:08:42.265Z,27.30
2018-12-16T01:09:42.231Z,27.80
2018-12-16T01:10:42.224Z,25.90
2018-12-16T01:11:42.217Z,28.00
2018-12-16T01:12:42.201Z,27.50
2018-12-16T01:13:42.216Z,25.80
2018-12-16T01:14:42.177Z,29.70
2018-12-16T01:15:42.169Z,27.10
2018-12-16T01:16:42.165Z,28.60
2018-12-16T01:17:42.146Z,25.90
2018-12-16T01:18:42.193Z,29.10
2018-12-16T01:19:42.123Z,28.10
2018-12-16T01:20:42.116Z,25.70
2018-12-16T01:21:42.100Z,30.00
2018-12-16T01:22:43.638Z,27.70
2018-12-16T01:23:42.131Z,27.60
2018-12-16T01:24:42.069Z,25.50
2018-12-16T01:25:42.081Z,30.10
2018-12-16T01:26:42.049Z,27.60
2018-12-16T01:27:42.043Z,27.40
2018-12-16T01:28:42.051Z,24.60
2018-12-16T01:29:42.043Z,23.40
2018-12-16T01:30:42.019Z,27.50
2018-12-16T01:31:41.991Z,26.60
2018-12-16T01:32:41.988Z,25.90
2018-12-16T01:33:41.970Z,24.80
2018-12-16T01:34:42.214Z,26.10
2018-12-16T01:35:41.953Z,26.30
2018-12-16T01:36:41.938Z,26.10
2018-12-16T01:37:41.928Z,26.50
2018-12-16T01:38:41.918Z,24.70
2018-12-16T01:39:41.935Z,24.30
2018-12-16T01:40:41.923Z,22.10
2018-12-16T01:41:41.905Z,23.70
2018-12-16T01:42:41.874Z,27.40
2018-12-16T01:43:41.863Z,23.80
2018-12-16T01:44:41.849Z,24.30
2018-12-16T01:45:41.861Z,27.60
2018-12-16T01:46:41.861Z,24.50
2018-12-16T01:47:41.820Z,21.90
2018-12-16T01:48:41.806Z,23.90
2018-12-16T01:49:41.819Z,21.90
2018-12-16T01:50:41.788Z,24.30
2018-12-16T01:51:41.775Z,23.10
2018-12-16T01:52:41.766Z,24.50
2018-12-16T01:53:41.776Z,22.70
2018-12-16T01:54:41.739Z,24.20
2018-12-16T01:55:41.729Z,21.60
2018-12-16T01:56:41.718Z,24.40
2018-12-16T01:57:41.741Z,22.90
2018-12-16T01:58:41.723Z,21.90
2018-12-16T01:59:41.688Z,22.50
2018-12-16T02:00:41.770Z,23.80
2018-12-16T02:01:50.249Z,24.00
2018-12-16T02:02:41.649Z,23.80
2018-12-16T02:03:41.640Z,24.70
2018-12-16T02:04:41.647Z,22.20
2018-12-16T02:05:41.619Z,22.60
2018-12-16T02:06:50.203Z,22.20
2018-12-16T02:07:41.595Z,21.80
2018-12-16T02:08:41.617Z,21.10
2018-12-16T02:09:41.588Z,21.60
2018-12-16T02:10:41.598Z,21.30
2018-12-16T02:11:41.583Z,23.60
2018-12-16T02:12:41.560Z,22.70
2018-12-16T02:13:41.537Z,20.60
2018-12-16T02:14:41.522Z,21.20
2018-12-16T02:15:41.522Z,20.90
2018-12-16T02:16:41.522Z,22.40
2018-12-16T02:17:41.499Z,21.30
2018-12-16T02:18:41.505Z,20.50
2018-12-16T02:19:41.509Z,23.10
2018-12-16T02:20:41.457Z,22.00
2018-12-16T02:21:41.476Z,19.80
2018-12-16T02:22:41.443Z,20.50
2018-12-16T02:23:41.446Z,20.90
2018-12-16T02:24:41.417Z,21.90
2018-12-16T02:25:41.436Z,20.70
2018-12-16T02:26:41.391Z,21.20
2018-12-16T02:27:41.397Z,19.80
2018-12-16T02:28:41.366Z,20.90
2018-12-16T02:29:41.363Z,21.70
2018-12-16T02:30:41.355Z,19.50
2018-12-16T02:31:41.347Z,21.50
2018-12-16T02:32:41.354Z,20.10
2018-12-16T02:33:41.334Z,20.20
2018-12-16T02:34:41.303Z,22.30
2018-12-16T02:35:41.308Z,20.80
2018-12-16T02:36:41.285Z,21.90
2018-12-16T02:37:41.267Z,19.60
2018-12-16T02:38:41.293Z,20.50
2018-12-16T02:39:41.252Z,20.10
2018-12-16T02:40:41.236Z,19.70
2018-12-16T02:41:41.243Z,20.60
2018-12-16T02:42:41.219Z,22.00
2018-12-16T02:43:41.227Z,20.40
2018-12-16T02:44:41.196Z,19.80
2018-12-16T02:45:41.189Z,19.30
2018-12-16T02:46:41.175Z,20.20
2018-12-16T02:47:41.161Z,19.70
2018-12-16T02:48:41.207Z,20.40
2018-12-16T02:49:41.141Z,19.40
2018-12-16T02:50:41.129Z,19.80
2018-12-16T02:51:41.124Z,19.40
2018-12-16T02:52:41.136Z,20.00
2018-12-16T02:53:41.117Z,19.80
2018-12-16T02:54:41.162Z,19.90
2018-12-16T02:55:41.075Z,18.70
2018-12-16T02:56:41.300Z,17.20
2018-12-16T02:57:41.069Z,20.30
2018-12-16T02:58:41.046Z,18.00
2018-12-16T02:59:41.055Z,20.20
2018-12-16T03:00:41.022Z,19.80
2018-12-16T03:01:41.031Z,20.80
2018-12-16T03:02:41.002Z,17.30
2018-12-16T03:03:41.017Z,18.10
2018-12-16T03:04:41.012Z,19.60
2018-12-16T03:05:40.965Z,18.90
2018-12-16T03:06:40.955Z,19.00
2018-12-16T03:07:40.948Z,18.60
2018-12-16T03:08:40.959Z,18.80
2018-12-16T03:09:40.943Z,19.80
2018-12-16T03:10:40.949Z,20.50
2018-12-16T03:11:40.897Z,19.80
2018-12-16T03:12:40.892Z,20.50
2018-12-16T03:13:40.897Z,19.20
2018-12-16T03:14:40.872Z,19.80
2018-12-16T03:15:40.908Z,19.00
2018-12-16T03:16:40.864Z,18.40
2018-12-16T03:17:40.837Z,18.70
2018-12-16T03:18:40.823Z,18.80
2018-12-16T03:19:40.817Z,18.70
2018-12-16T03:20:40.829Z,19.30
2018-12-16T03:21:40.836Z,20.50
2018-12-16T03:22:40.782Z,17.60
2018-12-16T03:23:40.795Z,20.50
2018-12-16T03:24:40.760Z,19.50
2018-12-16T03:25:40.746Z,19.40
2018-12-16T03:26:40.781Z,21.70
2018-12-16T03:27:40.728Z,19.00
2018-12-16T03:28:40.715Z,20.40
2018-12-16T03:29:40.714Z,21.20
2018-12-16T03:30:40.699Z,21.10
2018-12-16T03:31:40.711Z,18.60
2018-12-16T03:32:40.684Z,19.40
2018-12-16T03:33:40.662Z,20.50
2018-12-16T03:34:40.658Z,17.80
2018-12-16T03:35:40.656Z,18.90
2018-12-16T03:36:40.667Z,19.20
2018-12-16T03:37:40.642Z,19.50
2018-12-16T03:38:40.618Z,17.10
2018-12-16T03:39:40.601Z,20.40
2018-12-16T03:40:40.587Z,19.90
2018-12-16T03:41:40.589Z,19.90
2018-12-16T03:42:40.597Z,19.90
2018-12-16T03:43:40.558Z,20.00
2018-12-16T03:44:40.553Z,21.00
2018-12-16T03:45:40.566Z,18.60
2018-12-16T03:46:40.515Z,19.40
2018-12-16T03:47:40.540Z,18.70
2018-12-16T03:48:40.510Z,20.10
2018-12-16T03:49:40.519Z,19.00
2018-12-16T03:50:40.544Z,18.20
2018-12-16T03:51:40.507Z,18.80
2018-12-16T03:52:40.462Z,19.80
2018-12-16T03:53:40.440Z,18.90
2018-12-16T03:54:40.450Z,19.20
2018-12-16T03:55:40.423Z,19.20
2018-12-16T03:56:40.444Z,19.70
2018-12-16T03:57:40.398Z,20.00
2018-12-16T03:58:40.399Z,19.40
2018-12-16T03:59:40.378Z,18.60
2018-12-16T04:00:40.417Z,17.70
2018-12-16T04:01:40.379Z,18.90
2018-12-16T04:02:40.347Z,18.30
2018-12-16T04:03:40.332Z,19.80
2018-12-16T04:04:40.324Z,18.30
2018-12-16T04:05:40.330Z,17.10
2018-12-16T04:06:40.351Z,20.40
2018-12-16T04:07:40.309Z,19.30
2018-12-16T04:08:40.279Z,21.70
2018-12-16T04:09:40.291Z,18.10
2018-12-16T04:10:40.259Z,19.00
2018-12-16T04:11:40.250Z,17.20
2018-12-16T04:12:40.262Z,18.40
2018-12-16T04:13:40.246Z,19.30
2018-12-16T04:14:41.361Z,18.90
2018-12-16T04:15:40.202Z,21.10
2018-12-16T04:16:40.200Z,17.30
2018-12-16T04:17:40.206Z,18.80
2018-12-16T04:18:40.173Z,18.20
2018-12-16T04:19:40.178Z,18.70
2018-12-16T04:20:40.173Z,17.70
2018-12-16T04:21:40.159Z,18.70
2018-12-16T04:22:40.130Z,19.40
2018-12-16T04:23:40.126Z,20.20
2018-12-16T04:24:40.114Z,19.60
2018-12-16T04:25:40.113Z,19.40
2018-12-16T04:26:40.111Z,18.60
2018-12-16T04:27:40.094Z,19.70
2018-12-16T04:28:40.060Z,19.10
2018-12-16T04:29:40.051Z,17.30
2018-12-16T04:30:40.044Z,17.70
2018-12-16T04:31:40.068Z,18.70
2018-12-16T04:32:40.016Z,18.90
2018-12-16T04:33:40.011Z,18.10
2018-12-16T04:34:40.001Z,17.60
2018-12-16T04:35:40.041Z,19.40
2018-12-16T04:36:39.996Z,19.70
2018-12-16T04:37:39.964Z,17.50
2018-12-16T04:38:39.958Z,17.40
2018-12-16T04:39:39.939Z,16.90
2018-12-16T04:40:39.933Z,17.10
2018-12-16T04:41:39.964Z,17.70
2018-12-16T04:42:39.948Z,17.70
2018-12-16T04:43:39.919Z,19.70
2018-12-16T04:44:39.885Z,18.20
2018-12-16T04:45:39.874Z,17.20
2018-12-16T04:46:39.867Z,19.00
2018-12-16T04:47:39.887Z,18.60
2018-12-16T04:48:39.864Z,19.20
2018-12-16T04:49:39.852Z,17.00
2018-12-16T04:50:39.823Z,20.40
2018-12-16T04:51:39.810Z,18.50
2018-12-16T04:52:39.828Z,18.30
2018-12-16T04:53:39.795Z,20.50
2018-12-16T04:54:39.785Z,17.30
2018-12-16T04:55:39.778Z,18.20
2018-12-16T04:56:39.784Z,21.20
2018-12-16T04:57:39.742Z,19.80
2018-12-16T04:58:39.735Z,21.60
2018-12-16T04:59:39.749Z,20.40
2018-12-16T05:00:39.726Z,17.50
2018-12-16T05:01:39.726Z,19.40
2018-12-16T05:02:39.707Z,20.10
2018-12-16T05:03:39.702Z,20.10
2018-12-16T05:04:39.703Z,19.80
2018-12-16T05:05:39.658Z,20.50
2018-12-16T05:06:39.665Z,19.00
2018-12-16T05:07:39.633Z,18.90
2018-12-16T05:08:39.637Z,19.40
2018-12-16T05:09:39.640Z,20.10
2018-12-16T05:10:39.602Z,19.00
2018-12-16T05:11:39.603Z,17.70
2018-12-16T05:12:39.577Z,18.60
2018-12-16T05:13:39.607Z,20.70
2018-12-16T05:14:39.559Z,20.70
2018-12-16T05:15:39.575Z,20.20
2018-12-16T05:16:39.553Z,20.50
2018-12-16T05:17:39.523Z,18.50
2018-12-16T05:18:39.513Z,20.50
2018-12-16T05:19:39.538Z,16.80
2018-12-16T05:20:39.522Z,20.20
2018-12-16T05:21:39.518Z,19.40
2018-12-16T05:22:39.539Z,19.20
2018-12-16T05:23:42.101Z,20.40
2018-12-16T05:24:39.478Z,19.70
2018-12-16T05:25:39.439Z,20.30
2018-12-16T05:26:39.428Z,21.00
2018-12-16T05:27:39.455Z,21.20
2018-12-16T05:28:39.442Z,21.60
2018-12-16T05:29:39.404Z,22.20
2018-12-16T05:30:39.382Z,21.70
2018-12-16T05:31:39.372Z,20.70
2018-12-16T05:32:39.394Z,21.60
2018-12-16T05:33:39.348Z,20.20
2018-12-16T05:34:39.352Z,20.00
2018-12-16T05:35:39.345Z,20.40
2018-12-16T05:36:39.319Z,21.50
2018-12-16T05:37:39.330Z,22.30
2018-12-16T05:38:39.297Z,21.90
2018-12-16T05:39:39.291Z,22.70
2018-12-16T05:40:39.291Z,22.70
2018-12-16T05:41:39.279Z,22.40
2018-12-16T05:42:39.291Z,22.40
2018-12-16T05:43:39.243Z,23.20
2018-12-16T05:44:39.255Z,23.70
2018-12-16T05:45:39.220Z,23.40
2018-12-16T05:46:39.208Z,22.40
2018-12-16T05:47:39.195Z,23.00
2018-12-16T05:48:39.204Z,22.60
2018-12-16T05:49:39.201Z,22.00
2018-12-16T05:50:39.189Z,21.80
2018-12-16T05:51:39.159Z,22.00
2018-12-16T05:52:39.149Z,22.10
2018-12-16T05:53:39.134Z,22.30
2018-12-16T05:54:39.141Z,24.50
2018-12-16T05:55:39.134Z,21.40
2018-12-16T05:56:39.098Z,24.70
2018-12-16T05:57:39.086Z,20.90
2018-12-16T05:58:39.078Z,23.30
2018-12-16T05:59:39.068Z,23.20
2018-12-16T06:00:39.103Z,21.00
2018-12-16T06:01:39.051Z,23.50
2018-12-16T06:02:39.038Z,19.80
2018-12-16T06:03:39.024Z,22.90
2018-12-16T06:04:39.014Z,23.60
2018-12-16T06:05:39.027Z,21.30
2018-12-16T06:06:39.006Z,20.90
2018-12-16T06:07:38.985Z,21.10
2018-12-16T06:08:38.975Z,21.70
2018-12-16T06:09:39.000Z,20.70
2018-12-16T06:10:38.960Z,21.00
2018-12-16T06:11:38.938Z,20.70
2018-12-16T06:12:38.929Z,20.80
2018-12-16T06:13:38.919Z,21.50
2018-12-16T06:14:38.947Z,22.20
2018-12-16T06:15:38.894Z,23.40
2018-12-16T06:16:38.903Z,20.40
2018-12-16T06:17:38.908Z,19.80
2018-12-16T06:18:38.862Z,21.80
2018-12-16T06:19:38.853Z,22.40
2018-12-16T06:20:38.838Z,22.70
2018-12-16T06:21:38.839Z,21.90
2018-12-16T06:22:38.859Z,23.10
2018-12-16T06:23:38.809Z,21.10
2018-12-16T06:24:38.797Z,20.50
2018-12-16T06:25:38.826Z,21.80
2018-12-16T06:26:38.778Z,23.50
2018-12-16T06:27:38.784Z,22.80
2018-12-16T06:28:38.750Z,21.70
2018-12-16T06:29:38.755Z,21.30
2018-12-16T06:30:38.752Z,22.10
2018-12-16T06:31:38.719Z,22.40
2018-12-16T06:32:38.713Z,22.90
2018-12-16T06:33:38.697Z,23.10
2018-12-16T06:34:38.726Z,23.70
2018-12-16T06:35:38.689Z,23.00
2018-12-16T06:36:38.662Z,22.00
2018-12-16T06:37:38.649Z,24.00
2018-12-16T06:38:38.643Z,24.10
2018-12-16T06:39:38.669Z,23.30
2018-12-16T06:40:38.651Z,25.20
2018-12-16T06:41:38.623Z,24.80
2018-12-16T06:42:38.598Z,24.60
2018-12-16T06:43:38.591Z,24.30
2018-12-16T06:44:38.608Z,24.40
2018-12-16T06:45:38.573Z,23.60
2018-12-16T06:46:38.552Z,23.10
2018-12-16T06:47:38.589Z,24.50
2018-12-16T06:48:38.540Z,25.20
2018-12-16T06:49:38.553Z,22.50
2018-12-16T06:50:38.511Z,23.30
2018-12-16T06:51:38.509Z,23.30
2018-12-16T06:52:38.493Z,22.90
2018-12-16T06:53:38.502Z,24.50
2018-12-16T06:54:38.493Z,23.00
2018-12-16T06:55:43.364Z,26.70
2018-12-16T06:56:39.445Z,23.30
2018-12-16T06:57:38.470Z,24.80
2018-12-16T06:58:38.422Z,24.70
2018-12-16T06:59:38.419Z,26.20
2018-12-16T07:00:38.405Z,24.80
2018-12-16T07:01:38.422Z,24.10
2018-12-16T07:02:38.415Z,24.70
2018-12-16T07:03:38.368Z,25.10
2018-12-16T07:04:38.356Z,22.60
2018-12-16T07:05:38.347Z,25.00
2018-12-16T07:06:38.337Z,25.80
2018-12-16T07:07:38.364Z,25.40
2018-12-16T07:08:38.321Z,25.20
2018-12-16T07:09:38.327Z,24.80
2018-12-16T07:10:38.294Z,24.80
2018-12-16T07:11:38.281Z,24.80
2018-12-16T07:12:38.294Z,24.10
2018-12-16T07:13:38.257Z,24.40
2018-12-16T07:14:38.264Z,25.20
2018-12-16T07:15:38.236Z,25.10
2018-12-16T07:16:38.285Z,24.70
2018-12-16T07:17:38.231Z,27.30
2018-12-16T07:18:38.218Z,25.50
2018-12-16T07:19:38.234Z,22.50
2018-12-16T07:20:38.217Z,27.40
2018-12-16T07:21:38.201Z,25.90
2018-12-16T07:22:38.162Z,24.00
2018-12-16T07:23:38.148Z,24.20
2018-12-16T07:24:38.159Z,24.20
2018-12-16T07:25:38.176Z,24.60
2018-12-16T07:26:38.134Z,25.90
2018-12-16T07:27:38.109Z,27.40
2018-12-16T07:28:38.094Z,25.20
2018-12-16T07:29:38.082Z,25.50
2018-12-16T07:30:38.095Z,24.70
2018-12-16T07:31:38.072Z,24.10
2018-12-16T07:32:38.082Z,25.40
2018-12-16T07:33:38.090Z,24.80
2018-12-16T07:34:38.031Z,27.20
2018-12-16T07:35:38.035Z,25.90
2018-12-16T07:36:38.005Z,24.80
2018-12-16T07:37:38.022Z,25.40
2018-12-16T07:38:38.002Z,23.70
2018-12-16T07:39:38.002Z,26.10
2018-12-16T07:40:37.994Z,24.90
2018-12-16T07:41:37.954Z,26.90
2018-12-16T07:42:37.982Z,26.10
2018-12-16T07:43:37.962Z,24.60
2018-12-16T07:44:37.967Z,26.30
2018-12-16T07:45:37.921Z,25.80
2018-12-16T07:46:37.899Z,26.60
2018-12-16T07:47:37.982Z,24.20
2018-12-16T07:48:37.922Z,25.00
2018-12-16T07:49:37.876Z,24.20
2018-12-16T07:50:37.871Z,27.50
2018-12-16T07:51:37.843Z,26.00
2018-12-16T07:52:37.832Z,25.70
2018-12-16T07:53:37.859Z,27.40
2018-12-16T07:54:37.844Z,26.60
2018-12-16T07:55:37.829Z,27.40
2018-12-16T07:56:37.817Z,25.70
2018-12-16T07:57:37.782Z,24.60
2018-12-16T07:58:37.799Z,26.00
2018-12-16T07:59:37.764Z,27.40
2018-12-16T08:00:38.298Z,26.00
2018-12-16T08:01:37.736Z,26.70
2018-12-16T08:02:37.737Z,26.50
2018-12-16T08:03:37.744Z,26.20
2018-12-16T08:04:37.731Z,27.50
2018-12-16T08:05:37.742Z,25.70
2018-12-16T08:06:37.680Z,26.70
2018-12-16T08:07:37.693Z,28.00
2018-12-16T08:08:37.658Z,27.00
2018-12-16T08:09:37.645Z,26.50
2018-12-16T08:10:37.636Z,27.80
2018-12-16T08:11:37.633Z,28.00
2018-12-16T08:12:37.641Z,26.60
2018-12-16T08:13:37.631Z,26.20
2018-12-16T08:14:37.594Z,26.10
2018-12-16T08:15:37.581Z,26.50
2018-12-16T08:16:37.572Z,25.70
2018-12-16T08:17:37.571Z,24.30
2018-12-16T08:18:37.577Z,26.60
2018-12-16T08:19:37.546Z,27.60
2018-12-16T08:20:37.527Z,27.20
2018-12-16T08:21:37.515Z,26.30
2018-12-16T08:22:37.505Z,25.80
2018-12-16T08:23:37.559Z,26.70
2018-12-16T08:24:37.488Z,25.20
2018-12-16T08:25:37.494Z,25.10
2018-12-16T08:26:37.462Z,25.40
2018-12-16T08:27:37.452Z,26.30
2018-12-16T08:28:37.457Z,24.80
2018-12-16T08:29:37.464Z,25.50
2018-12-16T08:30:37.427Z,25.60
2018-12-16T08:31:45.971Z,23.90
2018-12-16T08:32:37.395Z,25.10
2018-12-16T08:33:45.438Z,25.60
2018-12-16T08:34:37.396Z,27.40
2018-12-16T08:35:37.364Z,27.10
2018-12-16T08:36:45.921Z,26.90
2018-12-16T08:37:37.342Z,26.50
2018-12-16T08:38:37.362Z,24.90
2018-12-16T08:39:37.322Z,23.90
2018-12-16T08:40:37.309Z,25.50
2018-12-16T08:41:37.301Z,25.90
2018-12-16T08:42:37.302Z,25.60
2018-12-16T08:43:37.307Z,26.80
2018-12-16T08:44:37.313Z,26.80
2018-12-16T08:45:37.262Z,27.30
2018-12-16T08:46:37.247Z,25.40
2018-12-16T08:47:37.253Z,23.90
2018-12-16T08:48:37.259Z,26.20
2018-12-16T08:49:37.370Z,25.30
2018-12-16T08:50:37.200Z,26.70
2018-12-16T08:51:37.212Z,26.10
2018-12-16T08:52:37.181Z,26.00
2018-12-16T08:53:37.168Z,25.60
2018-12-16T08:54:37.168Z,26.60
2018-12-16T08:55:37.177Z,25.10
2018-12-16T08:56:37.136Z,26.10
2018-12-16T08:57:37.214Z,26.00
2018-12-16T08:58:37.113Z,27.40
2018-12-16T08:59:37.105Z,25.70
2018-12-16T09:00:37.089Z,27.00
2018-12-16T09:01:37.107Z,24.60
2018-12-16T09:02:37.069Z,23.30
2018-12-16T09:03:37.078Z,25.60
2018-12-16T09:04:37.058Z,23.40
2018-12-16T09:05:37.065Z,24.00
2018-12-16T09:06:37.040Z,24.20
2018-12-16T09:07:37.544Z,24.10
2018-12-16T09:08:37.005Z,23.80
2018-12-16T09:09:37.030Z,24.10
2018-12-16T09:10:36.989Z,24.00
2018-12-16T09:11:36.991Z,23.00
2018-12-16T09:12:36.962Z,25.30
2018-12-16T09:13:36.949Z,24.50
2018-12-16T09:14:36.967Z,23.60
2018-12-16T09:15:36.973Z,25.40
2018-12-16T09:16:37.126Z,24.00
2018-12-16T09:17:36.905Z,25.00
2018-12-16T09:18:36.895Z,25.20
2018-12-16T09:19:36.884Z,23.90
2018-12-16T09:20:36.902Z,23.50
2018-12-16T09:21:36.885Z,23.00
2018-12-16T09:22:36.850Z,22.90
2018-12-16T09:23:36.850Z,26.70
2018-12-16T09:24:37.390Z,22.70
2018-12-16T09:25:37.709Z,24.00
2018-12-16T09:26:36.831Z,21.00
2018-12-16T09:27:36.796Z,22.00
2018-12-16T09:28:36.790Z,21.10
2018-12-16T09:29:36.792Z,23.40
2018-12-16T09:30:36.765Z,23.50
2018-12-16T09:31:36.775Z,24.60
2018-12-16T09:32:36.766Z,22.30
2018-12-16T09:33:36.731Z,25.40
2018-12-16T09:34:36.749Z,23.90
2018-12-16T09:35:36.752Z,22.80
2018-12-16T09:36:36.698Z,22.50
2018-12-16T09:37:36.686Z,22.00
2018-12-16T09:38:36.675Z,24.10
2018-12-16T09:39:36.666Z,24.40
2018-12-16T09:40:36.670Z,22.40
2018-12-16T09:41:36.663Z,23.40
2018-12-16T09:42:36.634Z,23.00
2018-12-16T09:43:36.638Z,25.60
2018-12-16T09:44:36.611Z,24.00
2018-12-16T09:45:36.601Z,19.70
2018-12-16T09:46:36.594Z,22.70
2018-12-16T09:47:36.596Z,23.10
2018-12-16T09:48:36.613Z,22.70
2018-12-16T09:49:36.557Z,22.10
2018-12-16T09:50:36.549Z,24.00
2018-12-16T09:51:36.535Z,21.70
2018-12-16T09:52:36.526Z,23.20
2018-12-16T09:53:36.539Z,23.30
2018-12-16T09:54:36.505Z,23.00
2018-12-16T09:55:36.492Z,21.50
2018-12-16T09:56:36.481Z,20.20
2018-12-16T09:57:36.510Z,23.30
2018-12-16T09:58:36.458Z,23.50
2018-12-16T09:59:36.449Z,21.40
2018-12-16T10:00:36.441Z,22.40
2018-12-16T10:01:36.430Z,20.90
2018-12-16T10:02:36.437Z,21.50
2018-12-16T10:03:36.403Z,20.70
2018-12-16T10:04:36.393Z,20.60
2018-12-16T10:05:36.381Z,22.70
2018-12-16T10:06:36.371Z,20.30
2018-12-16T10:07:36.391Z,23.20
2018-12-16T10:08:36.351Z,22.80
2018-12-16T10:09:36.343Z,23.80
2018-12-16T10:10:36.333Z,21.90
2018-12-16T10:11:36.327Z,22.10
2018-12-16T10:12:36.327Z,22.60
2018-12-16T10:13:36.294Z,23.60
2018-12-16T10:14:36.292Z,23.30
2018-12-16T10:15:36.300Z,22.00
2018-12-16T10:16:36.271Z,22.00
2018-12-16T10:17:36.284Z,21.50
2018-12-16T10:18:36.297Z,24.10
2018-12-16T10:19:36.262Z,22.30
2018-12-16T10:20:36.298Z,22.00
2018-12-16T10:21:36.214Z,21.30
2018-12-16T10:22:36.261Z,22.80
2018-12-16T10:23:36.185Z,20.60
2018-12-16T10:24:36.202Z,22.80
2018-12-16T10:25:36.167Z,20.70
2018-12-16T10:26:36.240Z,22.20
2018-12-16T10:27:36.148Z,23.10
2018-12-16T10:28:36.158Z,22.10
2018-12-16T10:29:36.123Z,22.20
2018-12-16T10:30:36.108Z,21.80
2018-12-16T10:31:36.102Z,20.60
2018-12-16T10:32:36.114Z,22.00
2018-12-16T10:33:36.080Z,20.60
2018-12-16T10:34:36.066Z,22.50
2018-12-16T10:35:36.055Z,21.60
2018-12-16T10:36:36.042Z,21.40
2018-12-16T10:37:36.066Z,21.30
2018-12-16T10:38:36.029Z,19.80
2018-12-16T10:39:36.046Z,21.50
2018-12-16T10:40:36.002Z,22.40
2018-12-16T10:41:35.991Z,21.20
2018-12-16T10:42:35.978Z,21.30
2018-12-16T10:43:35.968Z,22.00
2018-12-16T10:44:35.985Z,20.90
2018-12-16T10:45:35.949Z,22.70
2018-12-16T10:46:35.935Z,21.00
2018-12-16T10:47:35.962Z,22.60
2018-12-16T10:48:35.913Z,20.90
2018-12-16T10:49:35.921Z,21.60
2018-12-16T10:50:35.893Z,21.30
2018-12-16T10:51:35.901Z,21.70
2018-12-16T10:52:35.900Z,22.50
2018-12-16T10:53:36.633Z,22.10
2018-12-16T10:54:35.849Z,22.10
2018-12-16T10:55:35.838Z,22.10
2018-12-16T10:56:35.851Z,22.30
2018-12-16T10:57:35.821Z,23.00
2018-12-16T10:58:35.802Z,23.30
2018-12-16T10:59:35.821Z,21.60
2018-12-16T11:00:35.782Z,22.50
2018-12-16T11:01:35.770Z,21.80
2018-12-16T11:02:35.764Z,21.80
2018-12-16T11:03:35.770Z,24.00
2018-12-16T11:04:35.752Z,22.20
2018-12-16T11:05:35.726Z,22.80
2018-12-16T11:06:35.715Z,20.80
2018-12-16T11:07:35.727Z,22.30
2018-12-16T11:08:35.701Z,19.60
2018-12-16T11:09:35.684Z,20.70
2018-12-16T11:10:35.672Z,21.70
2018-12-16T11:11:35.693Z,21.90
2018-12-16T11:12:35.677Z,21.90
2018-12-16T11:13:35.640Z,21.90
2018-12-16T11:14:35.664Z,21.60
2018-12-16T11:15:35.618Z,22.50
2018-12-16T11:16:35.608Z,21.20
2018-12-16T11:17:35.665Z,22.80
2018-12-16T11:18:35.636Z,23.50
2018-12-16T11:19:35.573Z,24.20
2018-12-16T11:20:35.569Z,24.40
2018-12-16T11:21:35.557Z,22.20
2018-12-16T11:22:35.594Z,22.40
2018-12-16T11:23:35.529Z,22.90
2018-12-16T11:24:35.525Z,20.40
2018-12-16T11:25:35.510Z,22.70
2018-12-16T11:26:35.531Z,22.10
2018-12-16T11:27:35.536Z,20.80
2018-12-16T11:28:35.507Z,23.20
2018-12-16T11:29:35.465Z,21.80
2018-12-16T11:30:35.482Z,21.10
2018-12-16T11:31:35.463Z,21.10
2018-12-16T11:32:36.545Z,23.10
2018-12-16T11:33:35.453Z,22.30
2018-12-16T11:34:35.409Z,23.70
2018-12-16T11:35:35.422Z,23.70
2018-12-16T11:36:35.403Z,24.40
2018-12-16T11:37:35.383Z,23.80
2018-12-16T11:38:35.391Z,24.10
2018-12-16T11:39:35.355Z,24.50
2018-12-16T11:40:35.343Z,22.70
2018-12-16T11:41:35.342Z,25.80
2018-12-16T11:42:35.332Z,25.10
2018-12-16T11:43:35.344Z,23.30
2018-12-16T11:44:35.327Z,25.50
2018-12-16T11:45:35.365Z,23.50
2018-12-16T11:46:35.281Z,24.30
2018-12-16T11:47:35.266Z,23.70
2018-12-16T11:48:35.259Z,25.60
2018-12-16T11:49:35.275Z,24.90
2018-12-16T11:50:35.277Z,24.70
2018-12-16T11:51:35.225Z,23.20
2018-12-16T11:52:35.214Z,22.10
2018-12-16T11:53:35.287Z,23.90
2018-12-16T11:54:35.196Z,25.80
2018-12-16T11:55:43.252Z,22.30
2018-12-16T11:56:35.199Z,22.70
2018-12-16T11:57:35.157Z,20.80
2018-12-16T11:58:42.180Z,24.40
2018-12-16T11:59:35.188Z,24.20
2018-12-16T12:00:35.235Z,22.50
2018-12-16T12:01:35.120Z,22.50
2018-12-16T12:02:35.138Z,23.60
2018-12-16T12:03:35.109Z,21.10
2018-12-16T12:04:35.082Z,23.30
2018-12-16T12:05:35.077Z,24.40
2018-12-16T12:06:35.064Z,21.00
2018-12-16T12:07:35.081Z,21.30
2018-12-16T12:08:35.041Z,21.20
2018-12-16T12:09:35.071Z,25.70
2018-12-16T12:10:35.093Z,23.30
2018-12-16T12:11:35.023Z,22.80
2018-12-16T12:12:35.025Z,23.30
2018-12-16T12:13:34.992Z,23.40
2018-12-16T12:14:34.979Z,24.20
2018-12-16T12:15:34.973Z,23.00
2018-12-16T12:16:34.959Z,22.30
2018-12-16T12:17:34.959Z,22.80
2018-12-16T12:18:34.939Z,23.40
2018-12-16T12:19:34.929Z,23.70
2018-12-16T12:20:34.939Z,24.10
2018-12-16T12:21:34.910Z,23.00
2018-12-16T12:22:34.937Z,21.80
2018-12-16T12:23:34.883Z,23.90
2018-12-16T12:24:34.885Z,24.50
2018-12-16T12:25:34.879Z,23.90
2018-12-16T12:26:34.896Z,23.40
2018-12-16T12:27:34.849Z,21.90
2018-12-16T12:28:34.823Z,21.60
2018-12-16T12:29:34.838Z,21.90
2018-12-16T12:30:34.804Z,22.50
2018-12-16T12:31:42.472Z,22.80
2018-12-16T12:32:41.815Z,23.30
2018-12-16T12:33:34.771Z,22.50
2018-12-16T12:34:34.793Z,23.60
2018-12-16T12:35:34.745Z,23.30
2018-12-16T12:36:34.741Z,23.70
2018-12-16T12:37:35.314Z,21.90
2018-12-16T12:38:34.715Z,22.60
2018-12-16T12:39:34.725Z,21.80
2018-12-16T12:40:34.691Z,22.90
2018-12-16T12:41:34.683Z,22.70
2018-12-16T12:42:34.677Z,23.20
2018-12-16T12:43:34.661Z,22.60
2018-12-16T12:44:34.685Z,24.80
2018-12-16T12:45:34.639Z,22.60
2018-12-16T12:46:34.626Z,22.60
2018-12-16T12:47:34.622Z,21.90
2018-12-16T12:48:34.629Z,23.60
2018-12-16T12:49:34.595Z,22.40
2018-12-16T12:50:34.624Z,21.30
2018-12-16T12:51:34.573Z,23.70
2018-12-16T12:52:34.583Z,22.60